Time;durP1;ratioP1;P1;durP2;ratioP2;P2;SDS_P1;SDS_P2;PMS_P1;PMS_P2;Temp;Humidity;BMP_temperature;BMP_pressure;BME280_temperature;BME280_humidity;BME280_pressure;Samples;Min_cycle;Max_cycle;Signal;HPM_P1;HPM_P2
2023/08/06 00:00:29;;;;;;;12.80;10.60;;;;;;;18.55;100.00;96589.00;107981;1276;26640;-92
2023/08/06 00:03:17;;;;;;;11.40;10.40;;;;;;;18.54;100.00;96571.32;107766;1276;22530;-91
2023/08/06 00:05:45;;;;;;;13.20;10.50;;;;;;;18.54;100.00;96556.81;107182;1276;23896;-91
2023/08/06 00:08:13;;;;;;;9.60;8.70;;;;;;;18.53;100.00;96539.90;107178;1276;25248;-88
2023/08/06 00:10:41;;;;;;;11.80;9.90;;;;;;;18.55;100.00;96527.27;107141;1276;25661;-90
2023/08/06 00:13:09;;;;;;;10.50;9.40;;;;;;;18.55;100.00;96518.77;107122;1270;24049;-90
2023/08/06 00:15:37;;;;;;;9.30;8.30;;;;;;;18.62;100.00;96503.05;107216;1276;22665;-91
2023/08/06 00:18:05;;;;;;;9.20;8.40;;;;;;;18.60;100.00;96460.26;107313;1276;25278;-86
2023/08/06 00:20:33;;;;;;;7.70;6.90;;;;;;;18.52;100.00;96448.47;107271;1276;22545;-88
2023/08/06 00:23:02;;;;;;;7.90;7.10;;;;;;;18.51;100.00;96451.27;107526;1276;22828;-86
2023/08/06 00:25:47;;;;;;;7.80;6.90;;;;;;;18.52;100.00;96440.75;107867;1276;22594;-88
2023/08/06 00:28:15;;;;;;;8.70;6.30;;;;;;;18.53;100.00;96437.88;107280;1276;213148;-88
2023/08/06 00:30:43;;;;;;;8.60;6.10;;;;;;;18.54;100.00;96436.86;107179;1276;22556;-87
2023/08/06 00:33:21;;;;;;;6.40;5.70;;;;;;;18.51;100.00;96448.63;107035;1276;22540;-88
2023/08/06 00:35:52;;;;;;;7.70;7.00;;;;;;;18.52;100.00;96433.91;107090;1276;24854;-87
2023/08/06 00:38:20;;;;;;;10.10;7.30;;;;;;;18.51;100.00;96399.23;107083;1276;22649;-86
2023/08/06 00:40:48;;;;;;;6.00;5.50;;;;;;;18.43;100.00;96395.84;107029;1273;22524;-87
2023/08/06 00:43:16;;;;;;;6.40;5.60;;;;;;;18.40;100.00;96396.16;107086;1276;22822;-87
2023/08/06 00:45:45;;;;;;;6.90;5.20;;;;;;;18.37;100.00;96380.81;107201;1276;24210;-87
2023/08/06 00:48:14;;;;;;;6.60;5.60;;;;;;;18.34;100.00;96367.86;106942;1276;25490;-86
2023/08/06 00:50:42;;;;;;;5.50;4.90;;;;;;;18.31;100.00;96436.95;106832;1276;23750;-87
2023/08/06 00:53:10;;;;;;;7.40;4.90;;;;;;;18.36;100.00;96480.37;107122;1276;22524;-86
2023/08/06 00:55:39;;;;;;;5.30;4.70;;;;;;;18.38;100.00;96477.41;106911;1276;22572;-85
2023/08/06 00:58:07;;;;;;;5.90;4.80;;;;;;;18.42;100.00;96482.65;107095;1276;25389;-88
2023/08/06 01:00:35;;;;;;;6.90;5.00;;;;;;;18.44;100.00;96469.41;107067;1276;25455;-87
2023/08/06 01:03:03;;;;;;;6.10;5.00;;;;;;;18.44;100.00;96467.92;107053;1270;23699;-86
2023/08/06 01:05:31;;;;;;;8.20;6.70;;;;;;;18.47;100.00;96472.54;107035;1276;25325;-88
2023/08/06 01:08:14;;;;;;;7.80;6.30;;;;;;;18.46;100.00;96440.35;107041;1276;24228;-88
2023/08/06 01:11:01;;;;;;;7.00;6.10;;;;;;;18.47;100.00;96428.52;107111;1276;22524;-88
2023/08/06 01:13:49;;;;;;;8.80;6.10;;;;;;;18.48;100.00;96405.52;107101;1276;22684;-86
2023/08/06 01:16:18;;;;;;;7.40;6.20;;;;;;;18.50;100.00;96373.98;106957;1276;22521;-90
2023/08/06 01:18:49;;;;;;;9.40;7.30;;;;;;;18.49;100.00;96352.54;106868;1276;22545;-89
2023/08/06 01:21:18;;;;;;;9.10;6.90;;;;;;;18.45;100.00;96346.38;107099;1276;22530;-89
2023/08/06 01:23:47;;;;;;;8.70;7.20;;;;;;;18.42;100.00;96331.25;107114;1276;23153;-90
2023/08/06 01:26:25;;;;;;;11.40;7.70;;;;;;;18.42;100.00;96332.58;107182;1276;23169;-87
2023/08/06 01:29:01;;;;;;;8.60;7.10;;;;;;;18.41;100.00;96345.13;107038;1276;23895;-88
2023/08/06 01:31:37;;;;;;;9.60;7.40;;;;;;;18.43;100.00;96347.93;107097;1269;22514;-88
2023/08/06 01:34:13;;;;;;;6.80;6.10;;;;;;;18.47;100.00;96371.71;107214;1276;22573;-89
2023/08/06 01:36:42;;;;;;;8.40;7.60;;;;;;;18.57;100.00;96398.21;106998;1276;22582;-89
2023/08/06 01:39:10;;;;;;;9.50;8.30;;;;;;;18.65;100.00;96410.77;107071;1276;23300;-87
2023/08/06 01:41:38;;;;;;;9.00;8.00;;;;;;;18.68;100.00;96400.02;106910;1276;22525;-89
2023/08/06 01:44:06;;;;;;;8.00;7.30;;;;;;;18.71;100.00;96385.36;107098;1276;25340;-90
2023/08/06 01:46:34;;;;;;;11.20;9.80;;;;;;;18.74;100.00;96383.52;107028;1276;22636;-90
2023/08/06 01:49:02;;;;;;;11.50;10.40;;;;;;;18.75;100.00;96385.71;107117;1269;22688;-87
2023/08/06 01:51:30;;;;;;;9.80;8.80;;;;;;;18.77;100.00;96384.70;107045;1276;25462;-90
2023/08/06 01:53:58;;;;;;;12.40;11.10;;;;;;;18.79;100.00;96377.69;107057;1272;22785;-88
2023/08/06 01:56:27;;;;;;;12.40;11.20;;;;;;;18.81;100.00;96361.47;107084;1276;23234;-89
2023/08/06 01:58:55;;;;;;;10.40;9.50;;;;;;;18.82;100.00;96364.27;107071;1276;22520;-89
2023/08/06 02:01:23;;;;;;;11.10;9.90;;;;;;;18.87;100.00;96360.15;106904;1276;22501;-88
2023/08/06 02:03:51;;;;;;;12.30;10.70;;;;;;;18.88;100.00;96354.68;107068;1276;22732;-87
2023/08/06 02:06:20;;;;;;;11.00;10.00;;;;;;;18.88;100.00;96356.95;107081;1276;24244;-88
2023/08/06 02:08:48;;;;;;;12.10;11.00;;;;;;;18.89;100.00;96354.84;107137;1276;22570;-88
2023/08/06 02:11:16;;;;;;;12.10;11.00;;;;;;;18.88;100.00;96360.53;107122;1276;25332;-88
2023/08/06 02:13:45;;;;;;;12.20;10.50;;;;;;;18.86;100.00;96359.76;107115;1276;25470;-88
2023/08/06 02:16:17;;;;;;;10.70;9.70;;;;;;;18.82;100.00;96356.55;107196;1276;22575;-87
2023/08/06 02:18:45;;;;;;;12.30;11.10;;;;;;;18.81;100.00;96359.83;107058;1276;22524;-88
2023/08/06 02:21:13;;;;;;;12.40;11.00;;;;;;;18.82;100.00;96358.66;107105;1276;24250;-88
2023/08/06 02:23:41;;;;;;;12.00;10.90;;;;;;;18.82;100.00;96355.55;107087;1276;22562;-86
2023/08/06 02:26:10;;;;;;;11.80;10.00;;;;;;;18.84;100.00;96353.59;107060;1276;22527;-89
2023/08/06 02:28:38;;;;;;;10.80;9.80;;;;;;;18.85;100.00;96349.92;107051;1276;22520;-90
2023/08/06 02:31:07;;;;;;;12.40;10.70;;;;;;;18.87;100.00;96348.20;107119;1276;26258;-89
2023/08/06 02:33:36;;;;;;;11.30;10.30;;;;;;;18.90;100.00;96337.05;107187;1270;25223;-91
2023/08/06 02:36:04;;;;;;;12.70;11.50;;;;;;;18.94;100.00;96334.10;107085;1276;24231;-89
2023/08/06 02:38:33;;;;;;;13.80;12.50;;;;;;;18.94;100.00;96333.70;107050;1276;22655;-88
2023/08/06 02:41:04;;;;;;;14.40;12.90;;;;;;;18.96;100.00;96327.70;107143;1276;25326;-89
2023/08/06 02:43:32;;;;;;;14.80;13.30;;;;;;;18.95;100.00;96327.23;107061;1276;24622;-87
2023/08/06 02:46:01;;;;;;;14.60;13.10;;;;;;;18.94;100.00;96327.95;107273;1269;22529;-88
2023/08/06 02:48:29;;;;;;;14.70;13.40;;;;;;;18.93;100.00;96321.47;106881;1276;25269;-86
2023/08/06 02:50:59;;;;;;;14.70;13.40;;;;;;;18.92;100.00;96318.80;107157;1276;25364;-86
2023/08/06 02:53:28;;;;;;;15.80;14.20;;;;;;;18.92;100.00;96315.86;107069;1276;22989;-87
2023/08/06 02:55:57;;;;;;;16.30;14.80;;;;;;;18.91;100.00;96311.55;107033;1270;22588;-86
2023/08/06 02:58:30;;;;;;;15.80;14.10;;;;;;;18.91;100.00;96313.42;106919;1276;24750;-86
2023/08/06 03:01:07;;;;;;;15.80;14.30;;;;;;;18.92;100.00;96316.16;106886;1272;25398;-85
2023/08/06 03:03:55;;;;;;;20.70;16.00;;;;;;;18.95;100.00;96309.38;106839;1276;23025;-86
2023/08/06 03:06:28;;;;;;;18.30;16.30;;;;;;;18.96;100.00;96304.54;107071;1276;22826;-85
2023/08/06 03:08:57;;;;;;;19.40;17.40;;;;;;;18.97;100.00;96309.77;106962;1276;23092;-86
2023/08/06 03:11:26;;;;;;;18.20;16.40;;;;;;;18.98;100.00;96313.42;107022;1276;25625;-85
2023/08/06 03:13:58;;;;;;;20.70;18.00;;;;;;;18.98;100.00;96307.27;107025;1276;24365;-86
2023/08/06 03:16:27;;;;;;;19.50;17.30;;;;;;;19.01;100.00;96301.57;107038;1276;22581;-85
2023/08/06 03:18:55;;;;;;;21.70;19.70;;;;;;;19.01;100.00;96303.05;106942;1276;24209;-85
2023/08/06 03:21:23;;;;;;;22.10;20.00;;;;;;;19.03;100.00;96302.58;107006;1276;22541;-85
2023/08/06 03:23:51;;;;;;;22.10;20.00;;;;;;;19.03;100.00;96299.77;107028;1276;22521;-85
2023/08/06 03:26:22;;;;;;;22.00;20.00;;;;;;;19.04;100.00;96299.84;106917;1277;22515;-85
2023/08/06 03:28:50;;;;;;;25.30;19.70;;;;;;;19.08;100.00;96297.11;106722;1277;25357;-85
2023/08/06 03:31:18;;;;;;;22.10;19.70;;;;;;;19.08;100.00;96289.77;107031;1275;22543;-86
2023/08/06 03:33:46;;;;;;;22.70;19.60;;;;;;;19.07;100.00;96287.52;106788;1276;22524;-86
2023/08/06 03:36:16;;;;;;;24.40;20.10;;;;;;;19.06;100.00;96283.00;107045;1276;22665;-86
2023/08/06 03:38:45;;;;;;;22.20;17.20;;;;;;;19.05;100.00;96274.02;106776;1276;25363;-85
2023/08/06 03:41:13;;;;;;;18.90;17.10;;;;;;;19.06;100.00;96269.66;107060;1276;22532;-88
2023/08/06 03:43:42;;;;;;;20.10;18.00;;;;;;;19.06;100.00;96264.91;106805;1276;24386;-87
2023/08/06 03:46:13;;;;;;;19.20;17.40;;;;;;;19.08;100.00;96264.11;107115;1276;22533;-87
2023/08/06 03:48:41;;;;;;;18.30;16.70;;;;;;;19.11;100.00;96255.21;107405;1266;23945;-86
2023/08/06 03:51:09;;;;;;;31.10;18.20;;;;;;;19.15;100.00;96254.97;107137;1276;25333;-86
2023/08/06 03:53:38;;;;;;;21.10;17.20;;;;;;;19.15;100.00;96255.98;106863;1276;23282;-87
2023/08/06 03:56:06;;;;;;;21.70;17.20;;;;;;;19.15;100.00;96256.45;106894;1276;22598;-86
2023/08/06 03:58:34;;;;;;;22.60;18.30;;;;;;;19.14;100.00;96250.91;107043;1276;22578;-85
2023/08/06 04:01:03;;;;;;;20.90;18.80;;;;;;;19.15;100.00;96247.95;107023;1276;22552;-86
2023/08/06 04:03:39;;;;;;;20.10;18.00;;;;;;;19.16;100.00;96252.23;107020;1276;22535;-86
2023/08/06 04:06:07;;;;;;;20.70;16.90;;;;;;;19.16;100.00;96253.17;106991;1269;25268;-86
2023/08/06 04:08:37;;;;;;;22.60;17.00;;;;;;;19.18;100.00;96251.61;107042;1276;22525;-87
2023/08/06 04:11:05;;;;;;;20.10;18.00;;;;;;;19.20;100.00;96250.35;107053;1270;22542;-85
2023/08/06 04:13:33;;;;;;;19.90;17.80;;;;;;;19.25;100.00;96249.25;107088;1276;25451;-86
2023/08/06 04:16:02;;;;;;;17.80;16.10;;;;;;;19.29;100.00;96249.77;107089;1276;24331;-86
2023/08/06 04:18:31;;;;;;;19.30;16.70;;;;;;;19.33;100.00;96247.66;106797;1276;24380;-85
2023/08/06 04:20:59;;;;;;;18.50;16.60;;;;;;;19.32;100.00;96239.70;107086;1272;22524;-83
2023/08/06 04:23:27;;;;;;;18.70;16.80;;;;;;;19.32;100.00;96232.52;106923;1276;25384;-85
2023/08/06 04:25:58;;;;;;;16.90;15.40;;;;;;;19.30;100.00;96231.28;107077;1276;25374;-86
2023/08/06 04:28:30;;;;;;;18.60;14.70;;;;;;;19.27;100.00;96231.68;106822;1276;22725;-86
2023/08/06 04:30:59;;;;;;;16.80;15.30;;;;;;;19.23;100.00;96228.49;106810;1277;22617;-85
2023/08/06 04:33:27;;;;;;;16.40;14.80;;;;;;;19.23;100.00;96228.11;106989;1277;22629;-87
2023/08/06 04:35:57;;;;;;;18.00;16.20;;;;;;;19.20;100.00;96228.97;107064;1275;22527;-87
2023/08/06 04:38:27;;;;;;;15.90;14.40;;;;;;;19.20;100.00;96226.48;106886;1276;24229;-89
2023/08/06 04:40:55;;;;;;;15.40;13.80;;;;;;;19.20;100.00;96228.42;107169;1276;22596;-85
2023/08/06 04:43:24;;;;;;;15.00;13.60;;;;;;;19.25;100.00;96221.94;107037;1276;25039;-87
2023/08/06 04:45:54;;;;;;;15.00;13.60;;;;;;;19.30;100.00;96221.84;107186;1276;22573;-85
2023/08/06 04:48:22;;;;;;;13.60;12.40;;;;;;;19.29;100.00;96220.29;106988;1276;24304;-84
2023/08/06 04:50:50;;;;;;;13.40;12.10;;;;;;;19.25;100.00;96221.16;107115;1276;22601;-83
2023/08/06 04:53:18;;;;;;;10.90;9.90;;;;;;;19.21;100.00;96219.61;107102;1276;22534;-83
2023/08/06 04:55:47;;;;;;;9.40;8.40;;;;;;;19.17;100.00;96216.98;106943;1253;22742;-84
2023/08/06 04:58:15;;;;;;;10.30;9.40;;;;;;;19.10;100.00;96213.02;107081;1276;22848;-84
2023/08/06 05:00:43;;;;;;;10.80;9.80;;;;;;;19.05;100.00;96215.39;107185;1276;25929;-84
2023/08/06 05:03:11;;;;;;;11.20;10.10;;;;;;;19.04;100.00;96209.67;107083;1269;22596;-83
2023/08/06 05:05:42;;;;;;;10.90;10.00;;;;;;;18.99;100.00;96205.34;107044;1276;22523;-85
2023/08/06 05:08:16;;;;;;;11.60;10.30;;;;;;;18.99;100.00;96200.27;107126;1276;22529;-85
2023/08/06 05:10:45;;;;;;;12.30;11.20;;;;;;;18.98;100.00;96195.12;107133;1276;22673;-84
2023/08/06 05:13:13;;;;;;;11.50;10.30;;;;;;;18.95;100.00;96189.52;107124;1276;22824;-83
2023/08/06 05:15:42;;;;;;;10.20;9.30;;;;;;;18.93;100.00;96189.06;107156;1269;23229;-86
2023/08/06 05:18:11;;;;;;;11.20;10.20;;;;;;;18.89;100.00;96183.92;107158;1277;22632;-88
2023/08/06 05:20:41;;;;;;;11.20;9.90;;;;;;;18.85;100.00;96182.38;107056;1272;25718;-88
2023/08/06 05:23:09;;;;;;;9.90;9.00;;;;;;;18.81;100.00;96172.48;107260;1276;22517;-86
2023/08/06 05:25:40;;;;;;;10.40;9.40;;;;;;;18.78;100.00;96168.52;107413;1276;23153;-87
2023/08/06 05:28:08;;;;;;;10.10;9.10;;;;;;;18.75;100.00;96166.03;107392;1276;22536;-85
2023/08/06 05:30:40;;;;;;;9.40;8.50;;;;;;;18.73;100.00;96166.02;107062;1276;24242;-87
2023/08/06 05:33:08;;;;;;;9.10;8.20;;;;;;;18.69;100.00;96164.22;106836;1276;22727;-85
2023/08/06 05:35:36;;;;;;;9.10;8.20;;;;;;;18.66;100.00;96158.08;107141;1276;23042;-87
2023/08/06 05:38:04;;;;;;;9.20;8.30;;;;;;;18.66;100.00;96153.55;107175;1276;22518;-86
2023/08/06 05:40:34;;;;;;;9.00;8.10;;;;;;;18.60;100.00;96151.48;106870;1276;22646;-84
2023/08/06 05:43:02;;;;;;;9.70;8.80;;;;;;;18.58;100.00;96144.16;107178;1276;22535;-85
2023/08/06 05:45:30;;;;;;;9.50;8.40;;;;;;;18.61;100.00;96136.67;107163;1272;22527;-84
2023/08/06 05:47:58;;;;;;;9.80;8.80;;;;;;;18.67;100.00;96130.88;106839;1276;22627;-85
2023/08/06 05:50:26;;;;;;;9.70;8.90;;;;;;;18.71;100.00;96121.20;107148;1276;23142;-84
2023/08/06 05:52:54;;;;;;;9.30;8.40;;;;;;;18.72;100.00;96115.66;107157;1276;25278;-85
2023/08/06 05:55:22;;;;;;;8.70;7.70;;;;;;;18.71;100.00;96114.49;106967;1272;22581;-83
2023/08/06 05:57:52;;;;;;;8.70;7.90;;;;;;;18.70;100.00;96106.39;107041;1276;22903;-83
2023/08/06 06:00:21;;;;;;;8.50;7.60;;;;;;;18.69;100.00;96099.30;107106;1270;22515;-84
2023/08/06 06:02:49;;;;;;;8.30;7.60;;;;;;;18.69;100.00;96093.29;107075;1276;22594;-83
2023/08/06 06:05:17;;;;;;;7.60;6.90;;;;;;;18.67;100.00;96089.02;107114;1276;22525;-83
2023/08/06 06:07:45;;;;;;;7.90;7.10;;;;;;;18.65;100.00;96089.64;106995;1276;23149;-85
2023/08/06 06:10:13;;;;;;;7.10;6.40;;;;;;;18.65;100.00;96083.19;107057;1273;22574;-85
2023/08/06 06:12:41;;;;;;;7.80;6.90;;;;;;;18.68;100.00;96080.52;106996;1275;24344;-85
2023/08/06 06:15:10;;;;;;;6.60;6.00;;;;;;;18.67;100.00;96073.12;106813;1276;22625;-86
2023/08/06 06:17:38;;;;;;;7.20;6.50;;;;;;;18.67;100.00;96067.04;107078;1276;22742;-83
2023/08/06 06:20:06;;;;;;;8.00;7.30;;;;;;;18.66;100.00;96071.34;107079;1267;22817;-83
2023/08/06 06:22:34;;;;;;;9.80;8.90;;;;;;;18.66;100.00;96070.85;107096;1276;25348;-84
2023/08/06 06:25:02;;;;;;;11.30;9.80;;;;;;;18.66;100.00;96075.61;107094;1276;22647;-85
2023/08/06 06:27:30;;;;;;;11.00;10.10;;;;;;;18.64;100.00;96077.80;106802;1254;25504;-85
2023/08/06 06:29:58;;;;;;;14.60;13.30;;;;;;;18.58;100.00;96082.66;106792;1276;22630;-83
2023/08/06 06:32:26;;;;;;;13.50;12.20;;;;;;;18.53;100.00;96079.72;106793;1276;25329;-85
2023/08/06 06:34:54;;;;;;;12.50;11.40;;;;;;;18.47;100.00;96074.20;106905;1276;24352;-86
2023/08/06 06:37:22;;;;;;;12.80;11.70;;;;;;;18.40;100.00;96060.66;107065;1276;23377;-84
2023/08/06 06:39:50;;;;;;;12.80;11.00;;;;;;;18.33;100.00;96052.36;107025;1276;22549;-82
2023/08/06 06:42:18;;;;;;;12.20;11.10;;;;;;;18.27;100.00;96057.90;108237;1276;25204;-85
2023/08/06 06:44:47;;;;;;;10.90;9.80;;;;;;;18.24;100.00;96060.25;108833;1276;22577;-86
2023/08/06 06:47:15;;;;;;;10.20;9.20;;;;;;;18.19;100.00;96067.12;107040;1276;24006;-87
2023/08/06 06:49:43;;;;;;;12.20;11.10;;;;;;;18.17;100.00;96063.61;107036;1276;22549;-85
2023/08/06 06:52:11;;;;;;;11.30;10.00;;;;;;;18.18;100.00;96060.88;107063;1276;22523;-87
2023/08/06 06:54:39;;;;;;;9.10;8.20;;;;;;;18.14;100.00;96060.20;106803;1276;22787;-88
2023/08/06 06:57:07;;;;;;;8.50;7.40;;;;;;;18.10;100.00;96052.10;106958;1276;24231;-90
2023/08/06 06:59:35;;;;;;;7.10;6.40;;;;;;;18.09;100.00;96047.35;106734;1276;22528;-86
2023/08/06 07:02:03;;;;;;;8.10;7.30;;;;;;;18.08;100.00;96042.30;106848;1269;22638;-85
2023/08/06 07:04:31;;;;;;;6.50;5.90;;;;;;;18.08;100.00;96047.82;106840;1276;25325;-86
2023/08/06 07:06:59;;;;;;;6.70;5.90;;;;;;;18.08;100.00;96054.44;106787;1272;22642;-85
2023/08/06 07:09:27;;;;;;;8.10;4.90;;;;;;;18.06;100.00;96067.21;106820;1276;22552;-86
2023/08/06 07:11:56;;;;;;;6.80;5.60;;;;;;;18.05;100.00;96079.20;106786;1276;22596;-89
2023/08/06 07:14:28;;;;;;;5.30;4.80;;;;;;;18.03;100.00;96085.82;106630;1276;22641;-88
2023/08/06 07:16:56;;;;;;;6.50;4.40;;;;;;;18.01;100.00;96088.55;106851;1270;22629;-90
2023/08/06 07:19:24;;;;;;;4.80;3.30;;;;;;;17.96;100.00;96085.77;107202;1276;22806;-91
2023/08/06 07:21:52;;;;;;;3.00;2.50;;;;;;;17.90;100.00;96080.85;107140;1276;22744;-88
2023/08/06 07:24:20;;;;;;;5.70;2.50;;;;;;;17.82;100.00;96087.86;107304;1276;22578;-88
2023/08/06 07:26:48;;;;;;;7.00;2.20;;;;;;;17.73;100.00;96092.73;106973;1266;22641;-91
2023/08/06 07:29:20;;;;;;;4.30;2.30;;;;;;;17.66;100.00;96097.17;107189;1276;24209;-93
2023/08/06 07:31:50;;;;;;;4.10;2.30;;;;;;;17.60;100.00;96093.91;107255;1276;22517;-88
2023/08/06 07:34:18;;;;;;;2.30;1.80;;;;;;;17.50;100.00;96094.45;107207;1276;22528;-90
2023/08/06 07:36:46;;;;;;;2.70;2.10;;;;;;;17.36;100.00;96089.22;107885;1256;22669;-86
2023/08/06 07:39:16;;;;;;;2.90;1.70;;;;;;;17.18;100.00;96091.20;107865;1276;23148;-91
2023/08/06 07:41:45;;;;;;;3.00;1.80;;;;;;;16.93;100.00;96109.88;107413;1270;22521;-90
2023/08/06 07:44:13;;;;;;;1.90;1.50;;;;;;;16.65;100.00;96107.40;107371;1276;23904;-88
2023/08/06 07:46:41;;;;;;;2.90;1.60;;;;;;;16.45;100.00;96092.55;108039;1276;24276;-91
2023/08/06 07:49:11;;;;;;;3.00;1.70;;;;;;;16.30;100.00;96085.64;108950;1276;23568;-91
2023/08/06 07:51:39;;;;;;;3.20;1.70;;;;;;;16.18;100.00;96083.16;108764;1269;25268;-92
2023/08/06 07:54:07;;;;;;;1.80;1.50;;;;;;;16.07;100.00;96090.39;107687;1269;22535;-90
2023/08/06 07:56:36;;;;;;;2.80;1.40;;;;;;;16.00;100.00;96089.96;107690;1276;25396;-90
2023/08/06 07:59:04;;;;;;;3.10;1.60;;;;;;;15.92;100.00;96090.44;107531;1276;25491;-89
2023/08/06 08:01:33;;;;;;;2.00;1.40;;;;;;;15.89;100.00;96091.04;107350;1276;22527;-91
2023/08/06 08:04:01;;;;;;;4.00;2.40;;;;;;;15.83;100.00;96095.73;107385;1276;22633;-87
2023/08/06 08:06:29;;;;;;;5.70;2.30;;;;;;;15.83;100.00;96095.52;107245;1276;22522;-86
2023/08/06 08:08:57;;;;;;;5.70;2.10;;;;;;;15.85;100.00;96089.93;107179;1276;23211;-87
2023/08/06 08:11:26;;;;;;;2.90;1.60;;;;;;;15.87;100.00;96093.82;107195;1276;22548;-89
2023/08/06 08:13:54;;;;;;;3.60;1.90;;;;;;;15.85;100.00;96096.98;107199;1276;23423;-86
2023/08/06 08:16:22;;;;;;;3.00;2.00;;;;;;;15.82;100.00;96102.17;107184;1276;22566;-87
2023/08/06 08:18:50;;;;;;;2.90;1.90;;;;;;;15.79;100.00;96110.52;107313;1276;22781;-87
2023/08/06 08:21:18;;;;;;;2.10;1.70;;;;;;;15.74;100.00;96120.56;107281;1272;25401;-87
2023/08/06 08:23:46;;;;;;;1.60;1.50;;;;;;;15.65;100.00;96117.13;107171;1276;22572;-86
2023/08/06 08:26:42;;;;;;;1.80;1.60;;;;;;;15.53;100.00;96110.89;107010;1275;25297;-90
2023/08/06 08:29:10;;;;;;;4.60;2.10;;;;;;;15.49;100.00;96111.17;107189;1276;24438;-89
2023/08/06 08:31:39;;;;;;;9.00;2.30;;;;;;;15.47;100.00;96111.86;107196;1276;24061;-89
2023/08/06 08:34:07;;;;;;;7.00;2.40;;;;;;;15.46;100.00;96107.89;107218;1276;22633;-88
2023/08/06 08:36:35;;;;;;;5.10;2.20;;;;;;;15.39;100.00;96108.38;107149;1276;24196;-90
2023/08/06 08:39:04;;;;;;;3.40;1.80;;;;;;;15.37;100.00;96101.98;107149;1276;23193;-87
2023/08/06 08:41:35;;;;;;;9.50;2.20;;;;;;;15.35;100.00;96110.11;107230;1276;24396;-90
2023/08/06 08:44:08;;;;;;;3.70;1.70;;;;;;;15.32;100.00;96108.52;107570;1276;24235;-89
2023/08/06 08:46:40;;;;;;;5.90;2.00;;;;;;;15.31;100.00;96115.50;108927;1276;22584;-93
2023/08/06 08:49:08;;;;;;;7.20;2.40;;;;;;;15.29;100.00;96123.08;107754;1276;22534;-90
2023/08/06 08:51:36;;;;;;;7.10;2.30;;;;;;;15.30;100.00;96131.85;109110;1276;22775;-93
2023/08/06 08:54:07;;;;;;;3.10;1.70;;;;;;;15.33;100.00;96129.95;108655;1276;22479;-92
2023/08/06 08:56:35;;;;;;;3.90;2.10;;;;;;;15.30;100.00;96123.48;107689;1276;25326;-91
2023/08/06 08:59:03;;;;;;;4.00;1.80;;;;;;;15.28;100.00;96110.04;107730;1276;22519;-91
2023/08/06 09:01:34;;;;;;;3.10;1.80;;;;;;;15.30;100.00;96099.52;107799;1276;22738;-91
2023/08/06 09:04:05;;;;;;;1.60;1.30;;;;;;;15.29;100.00;96094.15;107769;1276;22524;-91
2023/08/06 09:06:39;;;;;;;1.40;1.30;;;;;;;15.27;100.00;96084.76;108745;1276;22483;-91
2023/08/06 09:09:22;;;;;;;;;;;;;;;15.28;100.00;96079.88;107934;1276;22515;-93
2023/08/06 09:11:51;;;;;;;1.30;1.20;;;;;;;15.25;100.00;96082.26;107264;1276;22524;-91
2023/08/06 09:14:19;;;;;;;1.40;1.30;;;;;;;15.25;100.00;96082.73;107051;1269;22627;-90
2023/08/06 09:16:48;;;;;;;1.60;1.50;;;;;;;15.24;100.00;96081.94;107446;1276;22592;-89
2023/08/06 09:19:17;;;;;;;1.60;1.40;;;;;;;15.24;100.00;96080.78;107537;1276;25393;-92
2023/08/06 09:21:48;;;;;;;1.20;0.90;;;;;;;15.25;100.00;96088.22;107648;1276;22551;-92
2023/08/06 09:24:16;;;;;;;1.40;1.20;;;;;;;15.23;100.00;96090.39;107557;1276;23152;-89
2023/08/06 09:26:45;;;;;;;1.60;1.50;;;;;;;15.22;100.00;96085.95;107976;1276;22528;-92
2023/08/06 09:29:16;;;;;;;1.70;1.60;;;;;;;15.23;100.00;96092.94;107674;1276;22542;-90
2023/08/06 09:31:45;;;;;;;3.60;2.00;;;;;;;15.25;100.00;96106.45;107141;1276;22487;-91
2023/08/06 09:34:23;;;;;;;4.40;2.40;;;;;;;15.28;100.00;96103.29;107227;1276;25151;-91
2023/08/06 09:36:54;;;;;;;2.90;2.30;;;;;;;15.31;100.00;96103.17;107365;1276;24160;-91
2023/08/06 09:39:28;;;;;;;2.40;2.10;;;;;;;15.34;100.00;96094.13;107616;1276;22541;-92
2023/08/06 09:42:01;;;;;;;4.70;2.60;;;;;;;15.37;100.00;96088.65;107771;1276;24193;-94
2023/08/06 09:44:32;;;;;;;3.90;1.80;;;;;;;15.35;100.00;96083.83;107378;1276;22572;-90
2023/08/06 09:47:02;;;;;;;4.50;2.40;;;;;;;15.37;100.00;96086.64;107549;1268;22604;-91
2023/08/06 09:49:37;;;;;;;3.40;1.90;;;;;;;15.37;100.00;96091.45;108053;1276;22585;-91
2023/08/06 09:52:07;;;;;;;6.30;2.90;;;;;;;15.33;100.00;96090.86;107855;1276;25401;-90
2023/08/06 09:54:38;;;;;;;4.90;2.50;;;;;;;15.31;100.00;96088.51;107332;1276;22584;-90
2023/08/06 09:57:06;;;;;;;4.50;2.20;;;;;;;15.32;100.00;96095.20;107387;1276;24298;-91
2023/08/06 09:59:35;;;;;;;4.80;2.50;;;;;;;15.31;100.00;96105.73;107543;1276;22556;-89
2023/08/06 10:02:11;;;;;;;4.80;2.30;;;;;;;15.31;100.00;96105.34;107584;1254;22561;-90
2023/08/06 10:04:47;;;;;;;4.30;1.80;;;;;;;15.29;100.00;96105.09;109599;1247;22849;31
2023/08/06 10:07:30;;;;;;;6.90;2.60;;;;;;;15.23;100.00;96105.11;110434;1253;22473;31
2023/08/06 10:09:59;;;;;;;4.90;2.20;;;;;;;15.25;100.00;96110.24;110670;1250;22284;-91
2023/08/06 10:12:32;;;;;;;4.00;2.30;;;;;;;15.31;100.00;96112.23;108226;1275;24198;-91
2023/08/06 10:15:14;;;;;;;4.50;2.00;;;;;;;15.34;100.00;96115.21;108837;1248;22421;31
2023/08/06 10:17:45;;;;;;;5.40;2.30;;;;;;;15.36;100.00;96119.67;108241;1276;25646;-91
2023/08/06 10:20:21;;;;;;;4.10;2.10;;;;;;;15.33;100.00;96120.41;108149;1275;22566;-93
2023/08/06 10:23:02;;;;;;;3.90;1.90;;;;;;;15.27;100.00;96123.66;108348;1275;22535;-87
2023/08/06 10:25:35;;;;;;;4.90;2.20;;;;;;;15.24;100.00;96126.82;107619;1275;22623;-90
2023/08/06 10:28:13;;;;;;;4.60;2.50;;;;;;;15.22;100.00;96123.09;107474;1275;24233;-90
2023/08/06 10:30:46;;;;;;;4.20;2.30;;;;;;;15.19;100.00;96121.66;107047;1276;26516;-89
2023/08/06 10:33:16;;;;;;;1.90;1.70;;;;;;;15.17;100.00;96119.86;106873;1278;22550;-91
2023/08/06 10:35:53;;;;;;;3.80;2.20;;;;;;;15.13;100.00;96120.59;108091;1278;22816;-90
2023/08/06 10:38:27;;;;;;;2.30;2.00;;;;;;;15.11;100.00;96127.23;109128;1276;22535;-90
2023/08/06 10:40:56;;;;;;;3.00;2.00;;;;;;;15.09;100.00;96127.43;108896;1275;22753;-91
2023/08/06 10:43:27;;;;;;;2.70;2.20;;;;;;;15.13;100.00;96126.32;108441;1269;22582;-90
2023/08/06 10:46:04;;;;;;;2.70;1.90;;;;;;;15.15;100.00;96127.98;109920;1247;23534;-90
2023/08/06 10:48:39;;;;;;;3.50;2.10;;;;;;;15.09;100.00;96124.64;110359;1248;22882;31
2023/08/06 10:51:10;;;;;;;2.80;2.50;;;;;;;15.00;100.00;96126.25;110456;1251;22271;-88
2023/08/06 10:53:44;;;;;;;5.50;3.20;;;;;;;14.93;100.00;96117.89;109311;1276;22928;-88
2023/08/06 10:56:13;;;;;;;5.10;3.40;;;;;;;14.92;100.00;96115.63;109922;1258;25411;-89
2023/08/06 10:58:45;;;;;;;3.20;2.20;;;;;;;14.90;100.00;96114.14;108353;1275;22548;-85
2023/08/06 11:01:14;;;;;;;5.80;2.90;;;;;;;14.92;100.00;96113.46;108388;1278;22648;-88
2023/08/06 11:03:46;;;;;;;1.80;1.60;;;;;;;14.92;100.00;96115.39;106985;1278;25515;-91
2023/08/06 11:06:19;;;;;;;2.10;1.80;;;;;;;14.88;100.00;96113.73;106969;1278;23413;-86
2023/08/06 11:08:49;;;;;;;4.80;2.30;;;;;;;14.85;100.00;96114.86;106901;1278;24052;-87
2023/08/06 11:11:18;;;;;;;3.90;2.20;;;;;;;14.86;100.00;96122.53;107168;1278;22618;-88
2023/08/06 11:13:48;;;;;;;4.20;2.20;;;;;;;14.80;100.00;96122.77;107177;1278;24203;-87
2023/08/06 11:16:24;;;;;;;4.70;2.50;;;;;;;14.74;100.00;96131.39;106929;1278;22614;-88
2023/08/06 11:18:54;;;;;;;4.40;2.70;;;;;;;14.72;100.00;96132.20;106897;1278;22663;-88
2023/08/06 11:21:24;;;;;;;4.40;2.60;;;;;;;14.72;100.00;96133.13;106900;1278;22650;-86
2023/08/06 11:23:53;;;;;;;2.70;2.20;;;;;;;14.70;100.00;96133.96;107582;1275;22532;-90